Cheney, Washington
Current Conditions -  °F | °C
As of 6:06 PM on Wednesday 26 Nov 2014 (Local Time) from KSKA Reporting Station
Haze Haze  
Wind Chill: 36°   Ceiling: Unl
Heat Index: 36°   Visibility: 1.7mi
Dew Point: 36°   Wind: 1mph
Humidity: 100%   Direction: NA
Pressure: 30.05"   Gusts: NA
Location:  47.49°N, 117.57°W
Report Text: KSKA 270206Z AUTO VRB01KT 1 3/4SM BR FEW150 02/02 A3005 RMK AO2 VIS 3/4V1 3/4 VIS 3/4 RWY05
Loading
Personal Weather Stations






























Interactive Weather Map New forecast layout! Learn more

10-Day Weather Forecast

Advertisements
Track Severe Weather on mobile